Time;durP1;ratioP1;P1;durP2;ratioP2;P2;SDS_P1;SDS_P2;PMS_P1;PMS_P2;Temp;Humidity;BMP_temperature;BMP_pressure;BME280_temperature;BME280_humidity;BME280_pressure;Samples;Min_cycle;Max_cycle;Signal;HPM_P1;HPM_P2
2023/05/16 00:01:38;;;;;;;9.32;6.90;;;10.30;99.90;;;;;;5109409;28;20032;-59
2023/05/16 00:04:04;;;;;;;8.40;6.70;;;10.30;99.90;;;;;;5087857;28;20510;-60
2023/05/16 00:06:30;;;;;;;10.07;7.50;;;10.30;99.90;;;;;;5105341;28;20034;-61
2023/05/16 00:08:56;;;;;;;10.95;7.70;;;10.30;99.90;;;;;;5098433;28;20077;-61
2023/05/16 00:11:22;;;;;;;9.30;7.05;;;10.30;99.90;;;;;;5089385;28;20036;-61
2023/05/16 00:13:47;;;;;;;10.57;7.97;;;10.30;99.90;;;;;;5106748;28;20034;-60
2023/05/16 00:16:13;;;;;;;9.27;7.22;;;10.30;99.90;;;;;;5089630;28;20028;-60
2023/05/16 00:18:39;;;;;;;9.77;7.30;;;10.30;99.90;;;;;;5106841;28;20152;-59
2023/05/16 00:21:05;;;;;;;8.80;6.75;;;10.30;99.90;;;;;;5089409;28;20429;-59
2023/05/16 00:23:31;;;;;;;10.70;7.18;;;10.30;99.90;;;;;;5106539;28;20391;-60
2023/05/16 00:25:56;;;;;;;9.43;6.95;;;10.30;99.90;;;;;;5099939;28;20040;-60
2023/05/16 00:28:22;;;;;;;8.70;7.50;;;10.30;99.90;;;;;;5106315;28;20023;-60
2023/05/16 00:30:48;;;;;;;13.25;7.47;;;10.30;99.90;;;;;;5109460;28;20035;-60
2023/05/16 00:33:13;;;;;;;9.93;6.90;;;10.30;99.90;;;;;;5090898;28;20031;-59
2023/05/16 00:35:39;;;;;;;12.38;7.55;;;10.30;99.90;;;;;;5109348;28;20031;-60
2023/05/16 00:38:05;;;;;;;8.43;6.72;;;10.30;99.90;;;;;;5090799;28;20076;-58
2023/05/16 00:40:31;;;;;;;9.27;8.00;;;10.40;99.90;;;;;;5109394;28;20035;-60
2023/05/16 00:42:57;;;;;;;8.98;7.28;;;10.30;99.90;;;;;;5087534;28;20021;-60
2023/05/16 00:45:22;;;;;;;8.48;7.25;;;10.30;99.90;;;;;;5108322;28;20016;-60
2023/05/16 00:47:49;;;;;;;10.73;7.53;;;10.30;99.90;;;;;;5087370;28;20036;-59
2023/05/16 00:50:15;;;;;;;8.88;7.03;;;10.30;99.90;;;;;;5108579;28;20027;-61
2023/05/16 00:52:41;;;;;;;11.82;7.70;;;10.30;99.90;;;;;;5087357;28;20036;-59
2023/05/16 00:55:09;;;;;;;10.23;7.95;;;10.30;99.90;;;;;;5108530;28;20038;-59
2023/05/16 00:57:36;;;;;;;11.02;9.05;;;10.40;99.90;;;;;;5086977;28;20023;-60
2023/05/16 01:00:04;;;;;;;10.05;7.90;;;10.40;99.90;;;;;;5108742;28;20080;-59
2023/05/16 01:02:29;;;;;;;12.30;7.85;;;10.40;99.90;;;;;;5085864;28;20020;-59
2023/05/16 01:04:56;;;;;;;9.48;7.93;;;10.40;99.90;;;;;;5089673;28;20734;-60
2023/05/16 01:07:22;;;;;;;10.45;7.88;;;10.30;99.90;;;;;;5100561;28;20028;-60
2023/05/16 01:09:47;;;;;;;12.73;7.63;;;10.30;99.90;;;;;;5088645;28;20031;-59
2023/05/16 01:12:34;;;;;;;7.85;6.95;;;10.30;99.90;;;;;;5107902;28;20031;-60
2023/05/16 01:15:12;;;;;;;9.05;7.65;;;10.30;99.90;;;;;;5113133;28;20380;-61
2023/05/16 01:18:10;;;;;;;9.52;7.90;;;10.20;99.90;;;;;;5089245;28;20026;-60
2023/05/16 01:20:58;;;;;;;10.25;7.95;;;10.20;99.90;;;;;;5112721;28;20043;-60
2023/05/16 01:23:29;;;;;;;10.50;7.55;;;10.10;99.90;;;;;;5090549;28;20146;-60
2023/05/16 01:26:11;;;;;;;10.88;7.20;;;10.00;99.90;;;;;;5103103;28;20168;-60
2023/05/16 01:28:38;;;;;;;10.38;7.82;;;10.00;99.90;;;;;;5087375;28;20032;-61
2023/05/16 01:31:04;;;;;;;11.18;7.85;;;9.90;99.90;;;;;;5110743;28;20039;-60
2023/05/16 01:33:29;;;;;;;9.10;8.00;;;9.90;99.90;;;;;;5090938;28;20035;-59
2023/05/16 01:36:17;;;;;;;13.25;9.40;;;9.90;99.90;;;;;;5111943;28;20028;-60
2023/05/16 01:39:02;;;;;;;11.68;8.55;;;9.90;99.90;;;;;;5087988;28;20020;-60
2023/05/16 01:41:34;;;;;;;12.90;8.55;;;9.90;99.90;;;;;;5071781;28;20032;-61
2023/05/16 01:44:06;;;;;;;11.95;8.15;;;9.90;99.90;;;;;;5091570;28;20721;-60
2023/05/16 01:46:39;;;;;;;10.98;8.30;;;9.90;99.90;;;;;;5071609;28;20036;-60
2023/05/16 01:49:24;;;;;;;12.57;8.50;;;9.90;99.90;;;;;;5071712;28;20039;-59
2023/05/16 01:51:54;;;;;;;10.80;8.00;;;9.90;99.90;;;;;;5074052;28;20028;-60
2023/05/16 01:54:23;;;;;;;10.68;8.32;;;9.90;99.90;;;;;;5112377;28;20035;-61
2023/05/16 01:56:52;;;;;;;9.80;8.18;;;9.90;99.90;;;;;;5091846;28;20266;-60
2023/05/16 01:59:21;;;;;;;10.35;7.95;;;9.90;99.90;;;;;;5112078;28;20027;-60
2023/05/16 02:01:47;;;;;;;10.93;8.57;;;9.90;99.90;;;;;;5091499;28;20491;-59
2023/05/16 02:04:14;;;;;;;13.27;9.13;;;10.00;99.90;;;;;;5111924;28;20028;-59
2023/05/16 02:06:40;;;;;;;12.93;9.13;;;10.00;99.90;;;;;;5084178;28;20028;-58
2023/05/16 02:09:05;;;;;;;11.68;9.00;;;10.00;99.90;;;;;;5091668;28;20027;-59
2023/05/16 02:11:31;;;;;;;13.15;8.40;;;10.10;99.90;;;;;;5109604;28;20020;-60
2023/05/16 02:13:56;;;;;;;10.48;8.75;;;10.10;99.90;;;;;;5108705;28;20044;-60
2023/05/16 02:16:22;;;;;;;13.90;11.38;;;10.20;99.90;;;;;;5091771;28;20564;-60
2023/05/16 02:18:47;;;;;;;16.23;11.98;;;10.30;99.90;;;;;;5090467;28;20032;-60
2023/05/16 02:21:13;;;;;;;14.48;11.23;;;10.40;99.90;;;;;;5110651;28;20047;-60
2023/05/16 02:23:38;;;;;;;14.93;10.82;;;10.50;99.90;;;;;;5089707;28;20393;-60
2023/05/16 02:26:04;;;;;;;16.23;12.07;;;10.60;99.90;;;;;;5100476;28;20087;-59
2023/05/16 02:28:29;;;;;;;15.02;11.95;;;10.70;99.90;;;;;;5091368;28;20050;-60
2023/05/16 02:30:59;;;;;;;16.00;11.30;;;10.80;99.90;;;;;;5110700;28;20402;-61
2023/05/16 02:33:27;;;;;;;16.00;11.35;;;10.90;99.90;;;;;;5089470;28;20107;-61
2023/05/16 02:35:52;;;;;;;14.52;10.80;;;11.00;99.90;;;;;;5110782;28;20114;-60
2023/05/16 02:38:19;;;;;;;12.82;11.40;;;11.10;99.90;;;;;;5089601;28;20103;-60
2023/05/16 02:40:48;;;;;;;16.08;12.35;;;11.20;99.90;;;;;;5110665;28;20073;-60
2023/05/16 02:43:14;;;;;;;15.88;11.82;;;11.20;99.90;;;;;;5088859;28;20032;-59
2023/05/16 02:45:39;;;;;;;16.42;12.30;;;11.30;99.90;;;;;;5110653;28;20483;-60
2023/05/16 02:48:05;;;;;;;15.82;12.32;;;11.30;99.90;;;;;;5088010;28;20039;-59
2023/05/16 02:50:32;;;;;;;17.15;12.98;;;11.30;99.90;;;;;;5109130;28;20364;-60
2023/05/16 02:52:58;;;;;;;17.70;12.43;;;11.40;99.90;;;;;;5087918;28;20845;-60
2023/05/16 02:55:24;;;;;;;15.90;11.35;;;11.40;99.90;;;;;;5110337;28;20057;-59
2023/05/16 02:57:50;;;;;;;16.95;13.25;;;11.50;99.90;;;;;;5089117;28;20506;-59
2023/05/16 03:00:17;;;;;;;17.60;13.48;;;11.50;99.90;;;;;;5110062;28;20061;-59
2023/05/16 03:02:43;;;;;;;20.05;15.32;;;11.50;99.90;;;;;;5098573;28;20023;-60
2023/05/16 03:05:09;;;;;;;17.95;12.82;;;11.60;99.90;;;;;;5082094;28;20021;-59
2023/05/16 03:07:35;;;;;;;17.20;12.32;;;11.60;99.90;;;;;;5090557;28;20046;-60
2023/05/16 03:10:00;;;;;;;17.98;14.32;;;11.60;99.90;;;;;;5108513;28;20046;-59
2023/05/16 03:12:26;;;;;;;19.27;13.00;;;11.70;99.90;;;;;;5110452;28;20507;-60
2023/05/16 03:14:51;;;;;;;20.25;13.25;;;11.70;99.90;;;;;;5091561;28;20055;-59
2023/05/16 03:17:16;;;;;;;18.20;13.70;;;11.70;99.90;;;;;;5110812;28;20028;-59
2023/05/16 03:19:42;;;;;;;23.10;15.32;;;11.70;99.90;;;;;;5091649;28;20111;-59
2023/05/16 03:22:07;;;;;;;18.80;14.98;;;11.70;99.90;;;;;;5110763;28;20020;-59
2023/05/16 03:24:33;;;;;;;19.70;14.32;;;11.70;99.90;;;;;;5089776;28;20475;-60
2023/05/16 03:26:59;;;;;;;18.77;13.85;;;11.70;99.90;;;;;;5090762;28;20040;-59
2023/05/16 03:29:25;;;;;;;14.10;12.27;;;11.70;99.90;;;;;;5107787;28;20627;-56
2023/05/16 03:31:51;;;;;;;17.85;14.07;;;11.70;99.90;;;;;;5110766;28;20058;-60
2023/05/16 03:34:17;;;;;;;19.48;13.48;;;11.70;99.90;;;;;;5089679;28;20055;-60
2023/05/16 03:36:43;;;;;;;17.00;12.48;;;11.70;99.90;;;;;;5088134;28;20444;-59
2023/05/16 03:39:08;;;;;;;19.90;12.82;;;11.70;99.90;;;;;;5109505;28;20402;-59
2023/05/16 03:41:34;;;;;;;17.48;12.52;;;11.70;99.90;;;;;;5088559;28;20050;-61
2023/05/16 03:43:59;;;;;;;13.88;11.40;;;11.70;99.90;;;;;;5110010;28;20024;-59
2023/05/16 03:46:25;;;;;;;18.35;12.68;;;11.70;99.90;;;;;;5089999;28;20107;-59
2023/05/16 03:48:50;;;;;;;20.88;14.35;;;11.70;99.90;;;;;;5088399;28;20078;-59
2023/05/16 03:51:16;;;;;;;17.95;12.35;;;11.70;99.90;;;;;;5109229;28;20395;-59
2023/05/16 03:53:41;;;;;;;18.33;12.88;;;11.60;99.90;;;;;;5088202;28;20086;-59
2023/05/16 03:56:07;;;;;;;17.30;13.30;;;11.70;99.90;;;;;;5095608;28;20024;-59
2023/05/16 03:58:32;;;;;;;20.88;13.93;;;11.60;99.90;;;;;;5109349;28;20112;-58
2023/05/16 04:00:58;;;;;;;17.70;12.90;;;11.60;99.90;;;;;;5096536;28;20026;-59
2023/05/16 04:03:27;;;;;;;18.15;14.20;;;11.60;99.90;;;;;;5090126;28;20751;-59
2023/05/16 04:05:54;;;;;;;17.95;12.23;;;11.60;99.90;;;;;;5091598;28;20031;-59
2023/05/16 04:08:19;;;;;;;15.25;11.27;;;11.60;99.90;;;;;;5103956;28;20103;-58
2023/05/16 04:10:45;;;;;;;20.10;12.23;;;11.70;99.90;;;;;;5093662;28;20161;-59
2023/05/16 04:13:10;;;;;;;17.50;11.77;;;11.70;99.90;;;;;;5109502;28;20399;-58
2023/05/16 04:15:36;;;;;;;20.85;12.73;;;11.70;99.90;;;;;;5093135;28;20107;-59
2023/05/16 04:18:02;;;;;;;15.65;11.40;;;11.70;99.90;;;;;;5107552;28;20024;-59
2023/05/16 04:20:27;;;;;;;16.35;11.63;;;11.70;99.90;;;;;;5089359;28;20024;-58
2023/05/16 04:22:53;;;;;;;16.63;11.32;;;11.80;99.90;;;;;;5092552;28;20032;-59
2023/05/16 04:25:18;;;;;;;16.35;12.23;;;11.80;99.90;;;;;;5103894;28;20135;-59
2023/05/16 04:27:44;;;;;;;13.48;10.75;;;11.90;99.90;;;;;;5098195;28;20059;-59
2023/05/16 04:30:10;;;;;;;14.27;10.10;;;11.80;99.90;;;;;;5087820;28;20031;-59
2023/05/16 04:32:36;;;;;;;20.63;12.30;;;11.90;99.90;;;;;;5093078;28;20113;-58
2023/05/16 04:35:02;;;;;;;14.85;11.02;;;12.00;99.90;;;;;;5107021;28;20486;-58
2023/05/16 04:37:27;;;;;;;14.40;12.10;;;12.00;99.90;;;;;;5096260;28;20565;-59
2023/05/16 04:39:53;;;;;;;16.27;11.18;;;12.00;99.90;;;;;;5088062;28;20034;-59
2023/05/16 04:42:19;;;;;;;17.98;13.13;;;12.00;99.90;;;;;;5106103;28;20429;-59
2023/05/16 04:44:46;;;;;;;16.20;12.38;;;12.00;99.90;;;;;;5089630;28;20102;-59
2023/05/16 04:47:12;;;;;;;20.20;13.43;;;12.00;99.90;;;;;;5110855;28;20039;-59
2023/05/16 04:49:38;;;;;;;19.95;12.95;;;12.00;99.90;;;;;;5093260;28;20119;-59
2023/05/16 04:52:06;;;;;;;15.25;12.15;;;12.00;99.90;;;;;;5110691;28;20027;-59
2023/05/16 04:54:32;;;;;;;20.67;13.13;;;11.90;99.90;;;;;;5113379;28;20114;-59
2023/05/16 04:56:57;;;;;;;16.77;12.75;;;12.00;99.90;;;;;;5097968;28;20103;-59
2023/05/16 04:59:23;;;;;;;17.02;13.05;;;12.00;99.90;;;;;;5106889;28;20027;-60
2023/05/16 05:01:48;;;;;;;17.70;13.10;;;12.00;99.90;;;;;;5104172;28;20539;-59
2023/05/16 05:04:14;;;;;;;19.45;14.65;;;11.90;99.90;;;;;;5088820;28;20042;-63
2023/05/16 05:06:40;;;;;;;19.60;14.05;;;11.90;99.90;;;;;;5106246;28;20031;-63
2023/05/16 05:09:05;;;;;;;19.80;12.23;;;11.90;99.90;;;;;;5111936;28;20035;-57
2023/05/16 05:11:31;;;;;;;17.45;13.32;;;11.90;99.90;;;;;;5088888;28;20032;-55
2023/05/16 05:13:57;;;;;;;17.15;12.63;;;11.90;99.90;;;;;;5110161;28;20027;-54
2023/05/16 05:16:22;;;;;;;20.45;13.32;;;11.90;99.90;;;;;;5090206;28;20032;-56
2023/05/16 05:18:48;;;;;;;16.40;11.45;;;11.90;99.90;;;;;;5108155;28;20016;-55
2023/05/16 05:21:13;;;;;;;18.55;12.90;;;11.90;99.90;;;;;;5090496;28;20028;-55
2023/05/16 05:23:39;;;;;;;22.83;13.98;;;11.90;99.90;;;;;;5088956;28;20047;-57
2023/05/16 05:26:05;;;;;;;16.77;12.60;;;11.90;99.90;;;;;;5099935;28;20722;-54
2023/05/16 05:28:30;;;;;;;18.48;13.18;;;11.80;99.90;;;;;;5102542;28;20101;-57
2023/05/16 05:30:56;;;;;;;16.42;11.25;;;11.90;99.90;;;;;;5111510;28;20028;-57
2023/05/16 05:33:28;;;;;;;17.92;12.73;;;11.90;99.90;;;;;;5089832;28;20558;-56
2023/05/16 05:35:53;;;;;;;15.85;11.80;;;11.90;99.90;;;;;;5070946;28;20017;-55
2023/05/16 05:38:19;;;;;;;14.35;10.38;;;12.00;99.90;;;;;;5092059;28;20116;-57
2023/05/16 05:40:44;;;;;;;16.27;10.95;;;12.00;99.90;;;;;;5110227;28;20028;-57
2023/05/16 05:43:10;;;;;;;12.80;10.00;;;12.00;99.90;;;;;;5089384;28;20438;-57
2023/05/16 05:45:36;;;;;;;14.10;10.40;;;12.00;99.90;;;;;;5110566;28;20024;-57
2023/05/16 05:48:02;;;;;;;16.77;11.73;;;12.00;99.90;;;;;;5089409;27;20051;-56
2023/05/16 05:50:27;;;;;;;14.98;11.70;;;12.00;99.90;;;;;;5110495;28;20024;-57
2023/05/16 05:52:54;;;;;;;16.42;12.70;;;12.00;99.90;;;;;;5089179;28;20028;-58
2023/05/16 05:55:19;;;;;;;16.83;10.75;;;12.00;99.90;;;;;;5110494;28;20572;-58
2023/05/16 05:57:45;;;;;;;13.75;11.48;;;11.90;99.90;;;;;;5099561;28;20073;-58
2023/05/16 06:00:11;;;;;;;13.90;11.07;;;11.90;99.90;;;;;;5090989;28;20532;-55
2023/05/16 06:02:36;;;;;;;16.75;11.10;;;11.90;99.90;;;;;;5108494;28;20024;-55
2023/05/16 06:05:02;;;;;;;15.98;10.90;;;12.00;99.90;;;;;;5090174;28;20130;-57
2023/05/16 06:07:28;;;;;;;19.85;11.70;;;12.00;99.90;;;;;;5108833;28;20379;-55
2023/05/16 06:09:53;;;;;;;15.38;11.02;;;12.00;99.90;;;;;;5090949;28;20434;-56
2023/05/16 06:12:19;;;;;;;14.40;9.77;;;12.00;99.90;;;;;;5107796;28;20028;-57
2023/05/16 06:14:44;;;;;;;14.73;10.75;;;11.90;99.90;;;;;;5109565;28;20016;-57
2023/05/16 06:17:10;;;;;;;12.43;9.77;;;11.90;99.90;;;;;;5094481;28;20524;-57
2023/05/16 06:19:35;;;;;;;15.40;11.00;;;11.90;99.90;;;;;;5110834;28;20061;-56
2023/05/16 06:22:01;;;;;;;16.83;11.65;;;12.00;99.90;;;;;;5092291;28;20027;-56
2023/05/16 06:24:28;;;;;;;19.48;10.55;;;11.90;99.90;;;;;;5110618;28;20019;-56
2023/05/16 06:26:54;;;;;;;12.07;9.38;;;11.90;99.90;;;;;;5092084;27;20046;-57
2023/05/16 06:29:19;;;;;;;12.73;9.10;;;11.90;99.90;;;;;;5109981;28;20019;-57
2023/05/16 06:31:46;;;;;;;13.13;9.55;;;12.00;99.90;;;;;;5091171;28;20108;-58
2023/05/16 06:34:11;;;;;;;12.10;9.30;;;12.10;99.90;;;;;;5110318;28;20038;-56
2023/05/16 06:36:37;;;;;;;14.40;11.18;;;12.10;99.90;;;;;;5090184;28;20535;-55
2023/05/16 06:39:03;;;;;;;13.30;10.50;;;12.10;99.90;;;;;;5109000;28;20054;-56
2023/05/16 06:41:29;;;;;;;14.02;9.70;;;12.20;99.90;;;;;;5088051;28;20024;-58
2023/05/16 06:43:56;;;;;;;14.45;9.65;;;12.30;99.90;;;;;;5110252;27;20102;-57
2023/05/16 06:46:21;;;;;;;14.35;10.05;;;12.40;99.90;;;;;;5089830;28;20032;-54
2023/05/16 06:48:47;;;;;;;15.45;10.85;;;12.40;99.90;;;;;;5107789;28;20418;-57
2023/05/16 06:51:12;;;;;;;14.00;8.68;;;12.50;99.90;;;;;;5089901;28;20118;-56
2023/05/16 06:53:38;;;;;;;11.23;8.43;;;12.50;99.90;;;;;;5088725;28;20023;-55
2023/05/16 06:56:03;;;;;;;12.00;8.70;;;12.50;99.90;;;;;;5109191;28;20489;-56
2023/05/16 06:58:29;;;;;;;10.27;8.50;;;12.60;99.90;;;;;;5088032;28;20024;-55
2023/05/16 07:00:54;;;;;;;14.07;9.10;;;12.60;99.90;;;;;;5107510;28;20027;-55
2023/05/16 07:03:20;;;;;;;13.45;8.68;;;12.60;99.90;;;;;;5090350;28;20035;-57
2023/05/16 07:05:45;;;;;;;13.50;8.57;;;12.70;99.90;;;;;;5082891;28;20111;-54
2023/05/16 07:08:11;;;;;;;12.10;7.95;;;12.70;99.90;;;;;;5091382;28;20399;-57
2023/05/16 07:10:38;;;;;;;10.93;8.18;;;12.70;99.90;;;;;;5108638;28;20023;-55
2023/05/16 07:13:03;;;;;;;12.85;9.15;;;12.70;99.90;;;;;;5087679;28;20047;-57
2023/05/16 07:15:29;;;;;;;11.00;8.32;;;12.80;99.90;;;;;;5108652;28;20024;-57
2023/05/16 07:17:56;;;;;;;10.65;6.78;;;12.80;99.90;;;;;;5087457;28;20484;-57
2023/05/16 07:20:21;;;;;;;10.80;7.82;;;12.80;99.90;;;;;;5108478;28;20529;-57
2023/05/16 07:22:47;;;;;;;10.20;7.65;;;12.80;99.90;;;;;;5087758;28;20020;-57
2023/05/16 07:25:13;;;;;;;11.65;7.25;;;12.80;99.90;;;;;;5105446;28;20043;-58
2023/05/16 07:27:43;;;;;;;9.35;6.70;;;12.90;99.90;;;;;;5097283;28;20122;-54
2023/05/16 07:30:11;;;;;;;8.30;6.78;;;13.00;99.90;;;;;;5088565;28;20488;-57
2023/05/16 07:32:36;;;;;;;10.98;7.45;;;13.00;99.90;;;;;;5096792;28;20036;-55
2023/05/16 07:35:02;;;;;;;9.70;7.40;;;13.10;99.90;;;;;;5108372;28;20392;-58
2023/05/16 07:37:28;;;;;;;10.15;7.57;;;13.00;99.90;;;;;;5094034;28;20479;-57
2023/05/16 07:39:53;;;;;;;8.30;6.43;;;13.00;99.90;;;;;;5088484;28;20035;-57
2023/05/16 07:42:19;;;;;;;12.20;6.97;;;13.10;99.90;;;;;;5105523;28;20027;-56
2023/05/16 07:44:44;;;;;;;8.75;6.10;;;13.10;99.90;;;;;;5108603;28;20016;-55
2023/05/16 07:47:10;;;;;;;11.15;6.80;;;13.10;99.90;;;;;;5092600;28;20518;-55
2023/05/16 07:49:35;;;;;;;8.52;6.18;;;13.00;99.60;;;;;;5108515;28;20052;-57
2023/05/16 07:52:01;;;;;;;7.57;5.35;;;13.10;99.90;;;;;;5091676;28;20030;-55
2023/05/16 07:54:26;;;;;;;9.15;5.72;;;13.10;99.50;;;;;;5108341;28;20413;-56
2023/05/16 07:56:52;;;;;;;10.23;6.00;;;13.10;98.60;;;;;;5090524;28;20501;-58
2023/05/16 07:59:17;;;;;;;7.70;5.53;;;13.10;99.00;;;;;;5108830;28;20027;-56
2023/05/16 08:01:43;;;;;;;12.38;6.38;;;13.20;99.90;;;;;;5087591;28;20387;-54
2023/05/16 08:04:08;;;;;;;17.13;5.68;;;13.20;98.80;;;;;;5108622;28;20062;-57
2023/05/16 08:06:34;;;;;;;8.23;6.38;;;13.20;97.90;;;;;;5081640;28;20059;-56
2023/05/16 08:08:59;;;;;;;11.27;7.75;;;13.30;98.30;;;;;;5108541;28;20051;-57
2023/05/16 08:11:25;;;;;;;7.50;5.40;;;13.30;98.30;;;;;;5088515;28;20032;-56
2023/05/16 08:13:51;;;;;;;11.77;6.97;;;13.40;98.00;;;;;;5088110;28;20024;-54
2023/05/16 08:16:16;;;;;;;9.75;7.15;;;13.40;95.90;;;;;;5107533;28;20036;-57
2023/05/16 08:18:42;;;;;;;9.15;5.82;;;13.30;94.80;;;;;;5086364;28;20031;-57
2023/05/16 08:21:12;;;;;;;7.90;6.10;;;13.40;97.00;;;;;;5107200;28;20023;-58
2023/05/16 08:23:37;;;;;;;9.50;6.57;;;13.40;96.80;;;;;;5084456;28;20391;-58
2023/05/16 08:26:03;;;;;;;7.57;5.68;;;13.60;96.30;;;;;;5097210;28;20168;-58
2023/05/16 08:28:29;;;;;;;10.55;6.05;;;13.70;96.40;;;;;;5088278;28;20039;-57
2023/05/16 08:30:55;;;;;;;8.27;5.80;;;13.80;94.50;;;;;;5107035;28;20463;-57
2023/05/16 08:33:20;;;;;;;7.32;5.47;;;13.90;93.30;;;;;;5086635;28;20093;-56
2023/05/16 08:35:48;;;;;;;7.85;5.13;;;13.80;91.80;;;;;;5107209;28;20164;-57
2023/05/16 08:38:13;;;;;;;5.63;4.53;;;13.80;93.10;;;;;;5085940;28;20128;-56
2023/05/16 08:40:39;;;;;;;10.82;4.93;;;13.80;94.60;;;;;;5107585;28;20039;-56
2023/05/16 08:43:06;;;;;;;6.68;4.30;;;13.80;93.70;;;;;;5085868;28;20028;-57
2023/05/16 08:45:31;;;;;;;5.07;4.13;;;13.80;93.90;;;;;;5107665;28;20491;-58
2023/05/16 08:48:00;;;;;;;7.72;4.32;;;13.90;93.50;;;;;;5085869;28;20054;-58
2023/05/16 08:50:30;;;;;;;7.13;4.43;;;13.90;93.20;;;;;;5102327;28;20043;-58
2023/05/16 08:52:56;;;;;;;4.35;3.33;;;13.90;92.00;;;;;;5083498;28;20024;-58
2023/05/16 08:55:23;;;;;;;5.22;3.50;;;14.00;93.00;;;;;;5107104;28;20027;-57
2023/05/16 08:57:50;;;;;;;5.25;3.85;;;14.00;92.60;;;;;;5085956;28;20032;-58
2023/05/16 09:00:18;;;;;;;4.40;3.53;;;14.10;92.40;;;;;;5107659;28;20073;-58
2023/05/16 09:02:43;;;;;;;3.75;2.92;;;14.20;88.60;;;;;;5097039;28;20040;-58
2023/05/16 09:05:14;;;;;;;3.70;2.70;;;14.30;88.80;;;;;;5082452;28;20054;-56
2023/05/16 09:07:41;;;;;;;4.35;2.50;;;14.30;90.30;;;;;;5096075;28;20035;-59
2023/05/16 09:10:08;;;;;;;4.47;2.22;;;14.40;90.30;;;;;;5088120;28;20107;-56
2023/05/16 09:12:34;;;;;;;5.60;2.40;;;14.50;90.50;;;;;;5105513;28;20539;-58
2023/05/16 09:15:02;;;;;;;3.95;2.50;;;14.50;84.70;;;;;;5088251;28;20062;-57
2023/05/16 09:17:37;;;;;;;4.78;2.72;;;14.40;82.20;;;;;;5105617;28;20553;-58
2023/05/16 09:20:17;;;;;;;3.45;2.38;;;14.40;81.70;;;;;;5067310;28;20043;-57
2023/05/16 09:22:57;;;;;;;6.20;3.03;;;14.40;80.00;;;;;;5105430;28;20710;-57
2023/05/16 09:25:25;;;;;;;5.68;2.65;;;14.30;79.20;;;;;;5072564;28;20075;-58
2023/05/16 09:27:55;;;;;;;7.07;3.95;;;14.30;82.30;;;;;;5087439;28;20024;-56
2023/05/16 09:30:29;;;;;;;14.00;7.65;;;14.20;82.00;;;;;;5103740;28;20046;-55
2023/05/16 09:32:55;;;;;;;10.00;6.85;;;14.10;79.30;;;;;;5109963;28;20383;-58
2023/05/16 09:35:22;;;;;;;7.43;4.97;;;14.10;83.70;;;;;;5090677;28;20032;-58
2023/05/16 09:37:49;;;;;;;6.13;3.92;;;14.10;81.90;;;;;;5111548;28;20024;-57
2023/05/16 09:40:15;;;;;;;4.50;2.97;;;14.00;80.60;;;;;;5089378;28;20091;-57
2023/05/16 09:42:42;;;;;;;5.40;2.75;;;14.00;83.90;;;;;;5111376;28;20032;-58
2023/05/16 09:45:12;;;;;;;5.07;2.80;;;14.10;82.90;;;;;;5090786;28;20443;-58
2023/05/16 09:47:45;;;;;;;3.72;2.10;;;14.10;80.90;;;;;;5088738;28;20067;-57
2023/05/16 09:50:14;;;;;;;2.85;2.00;;;14.10;81.90;;;;;;5070703;28;20036;-58
2023/05/16 09:52:40;;;;;;;2.42;1.80;;;14.20;80.10;;;;;;5070831;28;20399;-58
2023/05/16 09:55:07;;;;;;;4.90;1.70;;;14.20;81.10;;;;;;5109573;28;20114;-58
2023/05/16 09:57:35;;;;;;;5.00;1.60;;;14.30;78.30;;;;;;5089382;28;20297;-57
2023/05/16 10:00:09;;;;;;;3.33;1.85;;;14.40;79.60;;;;;;5111030;28;20032;-57
2023/05/16 10:02:36;;;;;;;1.65;1.38;;;14.50;77.50;;;;;;5088228;28;20028;-57
2023/05/16 10:05:01;;;;;;;3.05;1.58;;;14.60;77.30;;;;;;5103293;28;20039;-58
2023/05/16 10:07:28;;;;;;;5.05;2.00;;;14.70;77.30;;;;;;5088357;28;20399;-57
2023/05/16 10:09:54;;;;;;;4.00;2.00;;;14.80;73.60;;;;;;5110399;28;20028;-57
2023/05/16 10:12:28;;;;;;;5.32;2.17;;;14.80;75.00;;;;;;5087544;28;20032;-58
2023/05/16 10:14:55;;;;;;;5.13;1.83;;;14.80;72.30;;;;;;5070332;28;20111;-58
2023/05/16 10:17:21;;;;;;;3.85;1.67;;;15.00;72.90;;;;;;5090445;28;20070;-58
2023/05/16 10:19:48;;;;;;;3.50;1.38;;;15.00;71.50;;;;;;5109847;28;20333;-56
2023/05/16 10:22:15;;;;;;;2.78;1.30;;;15.20;71.80;;;;;;5088698;27;20026;-58
2023/05/16 10:24:57;;;;;;;2.58;1.25;;;15.30;70.20;;;;;;5110433;28;20034;-58
2023/05/16 10:27:24;;;;;;;3.92;1.95;;;15.40;72.10;;;;;;5085992;28;20040;-58
2023/05/16 10:29:51;;;;;;;3.63;1.60;;;15.60;71.70;;;;;;5110098;28;20441;-57
2023/05/16 10:32:18;;;;;;;2.92;1.40;;;15.80;71.70;;;;;;5088495;28;20671;-58
2023/05/16 10:34:45;;;;;;;2.95;1.30;;;16.00;72.30;;;;;;5109876;28;20641;-58
2023/05/16 10:37:10;;;;;;;1.48;0.95;;;16.10;70.30;;;;;;5088757;28;20050;-57
2023/05/16 10:39:38;;;;;;;2.72;1.27;;;16.10;68.00;;;;;;5109550;28;20027;-58
2023/05/16 10:42:05;;;;;;;3.47;1.33;;;16.00;66.00;;;;;;5088302;28;20127;-58
2023/05/16 10:44:35;;;;;;;3.15;1.48;;;16.00;64.30;;;;;;5109292;28;20082;-58
2023/05/16 10:47:03;;;;;;;4.03;1.50;;;15.80;64.10;;;;;;5088013;28;20282;-58
2023/05/16 10:49:30;;;;;;;5.32;2.00;;;15.80;64.20;;;;;;5109700;28;20055;-56
2023/05/16 10:52:09;;;;;;;4.05;1.48;;;15.60;62.60;;;;;;5087118;28;20115;-57
2023/05/16 10:54:38;;;;;;;3.25;1.38;;;15.60;61.20;;;;;;5069388;28;20047;-57
2023/05/16 10:57:05;;;;;;;4.00;1.48;;;15.70;64.60;;;;;;5092071;28;20458;-57
2023/05/16 10:59:39;;;;;;;3.42;1.13;;;15.70;63.10;;;;;;5109507;28;20066;-58
2023/05/16 11:02:32;;;;;;;5.85;1.63;;;15.80;63.50;;;;;;5083230;28;20024;-58
2023/05/16 11:04:59;;;;;;;3.58;1.30;;;15.90;62.10;;;;;;5075422;28;20104;-56
2023/05/16 11:07:33;;;;;;;4.45;1.52;;;15.90;63.70;;;;;;5081828;28;20035;-58
2023/05/16 11:10:07;;;;;;;4.18;1.20;;;16.00;61.60;;;;;;5067798;28;20054;-67
2023/05/16 11:12:52;;;;;;;3.80;0.95;;;16.00;64.70;;;;;;5086898;28;20052;-58
2023/05/16 11:15:26;;;;;;;3.08;1.10;;;16.00;61.90;;;;;;5067927;28;20021;-58
2023/05/16 11:18:06;;;;;;;3.08;1.20;;;15.90;63.90;;;;;;5109623;28;20522;-56
2023/05/16 11:20:36;;;;;;;3.00;1.20;;;16.00;62.50;;;;;;5089698;28;20448;-58
2023/05/16 11:23:17;;;;;;;5.78;1.70;;;15.90;64.90;;;;;;5109624;28;20027;-58
2023/05/16 11:25:45;;;;;;;2.53;1.08;;;15.90;62.00;;;;;;5090130;28;20036;-58
2023/05/16 11:28:15;;;;;;;2.80;1.55;;;15.80;64.60;;;;;;5087888;28;20024;-57
2023/05/16 11:30:47;;;;;;;2.33;1.48;;;15.80;63.10;;;;;;5074221;28;20016;-58
2023/05/16 11:33:13;;;;;;;5.15;2.15;;;15.60;63.70;;;;;;5109329;28;20069;-56
2023/05/16 11:35:39;;;;;;;4.05;1.80;;;15.60;63.60;;;;;;5089621;28;20024;-57
2023/05/16 11:38:04;;;;;;;3.30;1.60;;;15.50;63.90;;;;;;5109183;28;20029;-58
2023/05/16 11:40:30;;;;;;;5.07;1.52;;;15.50;64.60;;;;;;5089380;28;20028;-57
2023/05/16 11:42:59;;;;;;;4.15;1.70;;;15.50;65.00;;;;;;5109210;28;20048;-57
2023/05/16 11:45:25;;;;;;;5.10;1.63;;;15.50;64.30;;;;;;5088004;28;20067;-57
2023/05/16 11:47:51;;;;;;;3.20;1.58;;;15.40;65.30;;;;;;5109194;28;20086;-56
2023/05/16 11:50:19;;;;;;;3.97;1.40;;;15.30;65.50;;;;;;5087359;28;20089;-52
2023/05/16 11:52:47;;;;;;;2.42;1.40;;;15.40;65.60;;;;;;5109272;28;20023;-56
2023/05/16 11:55:14;;;;;;;4.20;1.75;;;15.30;65.20;;;;;;5087964;28;20459;-57
2023/05/16 11:57:43;;;;;;;5.00;1.67;;;15.30;64.80;;;;;;5109046;28;20027;-57
2023/05/16 12:00:23;;;;;;;2.88;1.48;;;15.30;66.10;;;;;;5088381;28;20028;-55
2023/05/16 12:02:49;;;;;;;5.43;2.05;;;15.40;65.00;;;;;;5109207;28;20068;-57
2023/05/16 12:05:16;;;;;;;4.18;1.83;;;15.40;65.40;;;;;;5086834;28;20571;-55
2023/05/16 12:07:43;;;;;;;4.00;2.15;;;15.50;65.00;;;;;;5088562;28;20024;-58
2023/05/16 12:10:11;;;;;;;2.78;1.40;;;15.70;63.50;;;;;;5106088;28;20035;-57
2023/05/16 12:12:39;;;;;;;5.40;1.40;;;15.80;64.00;;;;;;5109158;28;20028;-58
2023/05/16 12:15:06;;;;;;;2.92;1.20;;;15.90;63.90;;;;;;5087606;28;20040;-57
2023/05/16 12:17:36;;;;;;;3.10;1.58;;;16.00;61.70;;;;;;5109062;28;20023;-57
2023/05/16 12:20:10;;;;;;;4.35;1.52;;;16.00;61.50;;;;;;5087586;28;20032;-57
2023/05/16 12:22:38;;;;;;;4.85;1.25;;;15.90;60.70;;;;;;5106325;28;20387;-57
2023/05/16 12:25:35;;;;;;;4.65;1.23;;;15.90;62.00;;;;;;5090519;28;20024;-57
2023/05/16 12:28:01;;;;;;;2.22;1.10;;;15.90;59.90;;;;;;5101913;28;20028;-57
2023/05/16 12:30:29;;;;;;;3.28;1.73;;;15.80;62.20;;;;;;5086597;28;20032;-57
2023/05/16 12:33:15;;;;;;;4.63;1.30;;;15.80;62.70;;;;;;5102505;28;20399;-58
2023/05/16 12:35:43;;;;;;;3.00;1.33;;;15.80;59.10;;;;;;5105676;28;20042;-56
2023/05/16 12:38:11;;;;;;;3.70;1.35;;;15.70;59.10;;;;;;5084215;28;20040;-55
2023/05/16 12:40:39;;;;;;;6.03;1.52;;;15.60;60.20;;;;;;5091799;28;20032;-57